Airfield :
LOGIN :

Register | Disclaimer

   EN    FR    IT 

 










Legend :    VFR   Marginal VFR   IFR   Intensive IFR   Very Intensive IFR
Visi :
Ceiling :
>= 8 km
>= 3000ft
5 to 8 km
1000 to 3000 ft
1500m to 5 km
500 to 1000 ft
800 to 1500m
200 to 500 ft
< 800m
< 200 ft
Symbols :   Thunderstorms  Fog  Heavy snow  Heavy precipitations  Wind > 20 kt
SIGMETs :     Misc.  Thunderstorms  Icing  Turbulence  Mountain Waves  Volcanic Ashes







- Airport Elevation : 84 ft
- Download approach charts


LFBC - Cazaux

CURRENT METAR :
  • 211730Z AUTO 00000KT CAVOK 17/04 Q1027 NOSIG

EXPIRED METARs :
  • 211700Z AUTO VRB02KT CAVOK 19/05 Q1027 NOSIG
  • 211630Z AUTO 23004KT CAVOK 20/04 Q1027 NOSIG
  • 211600Z AUTO 24006KT CAVOK 20/03 Q1027 NOSIG
  • 211530Z AUTO 24005KT 210V270 CAVOK 20/02 Q1027 NOSIG
  • 211500Z AUTO 24007KT CAVOK 20/03 Q1027 NOSIG

TAF TAF LFBC
Valid from the 21 at 15:00 until the 22 at 15:00 UTC


211400Z 2115/2215 15006KT CAVOK
BECMG 2123/2202 5000 MIFG NSC
PROB40
TEMPO 2206/2208 VRB02KT 2000 BCFG
BECMG 2208/2210 CAVOK
No reported NOTAMs for that airfield.



MET'MAP, your aeronautical weather chart ! - Copyright ORBIFLY December 2007 - Disclaimer

ORBIFLY MET'MAP TEAM :

Programming & Development : Alexandra Zaïnal
Concept & Development : Baudouin d'Aumeries
Co-Development & Prog : Marc-Olivier Méhu
Technical & hardware support : Manuel Goepfert

Contact : metmap@orbifly.com




SOURCES & CREDITS :

   NOAA